sensor_id;sensor_type;location;lat;lon;timestamp;pressure;altitude;pressure_sealevel;temperature;humidity
42633;BME280;28261;53.304;-6.284;2023-02-19T00:01:06;102044.38;;;8.79;90.14
42633;BME280;28261;53.304;-6.284;2023-02-19T00:03:10;102038.25;;;8.79;89.76
42633;BME280;28261;53.304;-6.284;2023-02-19T00:05:13;102057.53;;;8.81;89.78
42633;BME280;28261;53.304;-6.284;2023-02-19T00:07:17;102046.13;;;8.80;89.54
42633;BME280;28261;53.304;-6.284;2023-02-19T00:09:21;102053.00;;;8.85;89.79
42633;BME280;28261;53.304;-6.284;2023-02-19T00:11:27;102049.41;;;8.86;89.55
42633;BME280;28261;53.304;-6.284;2023-02-19T00:13:34;102054.72;;;8.86;89.16
42633;BME280;28261;53.304;-6.284;2023-02-19T00:15:38;102059.16;;;8.85;89.49
42633;BME280;28261;53.304;-6.284;2023-02-19T00:17:41;102059.28;;;8.82;89.14
42633;BME280;28261;53.304;-6.284;2023-02-19T00:19:45;102053.22;;;8.78;89.39
42633;BME280;28261;53.304;-6.284;2023-02-19T00:21:50;102059.50;;;8.76;89.14
42633;BME280;28261;53.304;-6.284;2023-02-19T00:23:56;102061.34;;;8.74;89.45
42633;BME280;28261;53.304;-6.284;2023-02-19T00:26:03;102061.41;;;8.72;89.61
42633;BME280;28261;53.304;-6.284;2023-02-19T00:28:21;102063.19;;;8.72;89.84
42633;BME280;28261;53.304;-6.284;2023-02-19T00:30:25;102061.41;;;8.72;89.74
42633;BME280;28261;53.304;-6.284;2023-02-19T00:32:28;102064.91;;;8.73;90.23
42633;BME280;28261;53.304;-6.284;2023-02-19T00:34:32;102055.31;;;8.70;90.35
42633;BME280;28261;53.304;-6.284;2023-02-19T00:36:36;102066.75;;;8.71;90.32
42633;BME280;28261;53.304;-6.284;2023-02-19T00:38:41;102067.69;;;8.70;90.31
42633;BME280;28261;53.304;-6.284;2023-02-19T00:40:45;102060.72;;;8.67;90.64
42633;BME280;28261;53.304;-6.284;2023-02-19T00:42:50;102066.91;;;8.66;90.71
42633;BME280;28261;53.304;-6.284;2023-02-19T00:44:53;102063.47;;;8.64;90.32
42633;BME280;28261;53.304;-6.284;2023-02-19T00:46:57;102073.13;;;8.65;90.06
42633;BME280;28261;53.304;-6.284;2023-02-19T00:49:00;102073.25;;;8.62;90.41
42633;BME280;28261;53.304;-6.284;2023-02-19T00:51:04;102077.63;;;8.63;90.33
42633;BME280;28261;53.304;-6.284;2023-02-19T00:53:07;102088.25;;;8.61;90.64
42633;BME280;28261;53.304;-6.284;2023-02-19T00:55:11;102092.63;;;8.62;90.40
42633;BME280;28261;53.304;-6.284;2023-02-19T00:57:14;102093.53;;;8.61;91.03
42633;BME280;28261;53.304;-6.284;2023-02-19T00:59:19;102104.16;;;8.60;91.14
42633;BME280;28261;53.304;-6.284;2023-02-19T01:01:22;102089.22;;;8.59;91.21
42633;BME280;28261;53.304;-6.284;2023-02-19T01:03:26;102099.78;;;8.59;91.09
42633;BME280;28261;53.304;-6.284;2023-02-19T01:05:29;102096.31;;;8.57;91.21
42633;BME280;28261;53.304;-6.284;2023-02-19T01:07:34;102098.13;;;8.56;90.64
42633;BME280;28261;53.304;-6.284;2023-02-19T01:09:38;102090.19;;;8.56;91.40
42633;BME280;28261;53.304;-6.284;2023-02-19T01:11:41;102088.41;;;8.57;90.77
42633;BME280;28261;53.304;-6.284;2023-02-19T01:13:45;102085.75;;;8.57;90.57
42633;BME280;28261;53.304;-6.284;2023-02-19T01:15:49;102093.69;;;8.57;91.07
42633;BME280;28261;53.304;-6.284;2023-02-19T01:17:53;102084.91;;;8.56;90.38
42633;BME280;28261;53.304;-6.284;2023-02-19T01:19:56;102084.06;;;8.56;90.46
42633;BME280;28261;53.304;-6.284;2023-02-19T01:22:00;102084.97;;;8.55;91.15
42633;BME280;28261;53.304;-6.284;2023-02-19T01:24:04;102080.59;;;8.54;91.19
42633;BME280;28261;53.304;-6.284;2023-02-19T01:26:12;102093.75;;;8.55;90.98
42633;BME280;28261;53.304;-6.284;2023-02-19T01:28:15;102079.69;;;8.55;90.67
42633;BME280;28261;53.304;-6.284;2023-02-19T01:30:19;102078.84;;;8.53;91.12
42633;BME280;28261;53.304;-6.284;2023-02-19T01:32:24;102093.81;;;8.54;90.63
42633;BME280;28261;53.304;-6.284;2023-02-19T01:34:27;102082.44;;;8.52;90.98
42633;BME280;28261;53.304;-6.284;2023-02-19T01:36:34;102090.38;;;8.52;90.41
42633;BME280;28261;53.304;-6.284;2023-02-19T01:38:38;102093.88;;;8.52;90.82
42633;BME280;28261;53.304;-6.284;2023-02-19T01:40:41;102086.00;;;8.51;91.20
42633;BME280;28261;53.304;-6.284;2023-02-19T01:42:44;102083.34;;;8.51;90.91
42633;BME280;28261;53.304;-6.284;2023-02-19T01:47:19;102100.13;;;8.50;90.47
42633;BME280;28261;53.304;-6.284;2023-02-19T01:49:27;102101.09;;;8.47;90.71
42633;BME280;28261;53.304;-6.284;2023-02-19T01:51:31;102100.25;;;8.46;90.95
42633;BME280;28261;53.304;-6.284;2023-02-19T01:53:37;102105.63;;;8.43;91.18
42633;BME280;28261;53.304;-6.284;2023-02-19T01:55:43;102098.59;;;8.42;91.46
42633;BME280;28261;53.304;-6.284;2023-02-19T01:57:51;102097.69;;;8.43;91.27
42633;BME280;28261;53.304;-6.284;2023-02-19T01:59:57;102097.66;;;8.45;91.31
42633;BME280;28261;53.304;-6.284;2023-02-19T02:02:13;102092.38;;;8.45;91.37
42633;BME280;28261;53.304;-6.284;2023-02-19T02:04:16;102088.88;;;8.43;90.82
42633;BME280;28261;53.304;-6.284;2023-02-19T02:06:25;102098.66;;;8.41;90.20
42633;BME280;28261;53.304;-6.284;2023-02-19T02:08:30;102098.72;;;8.39;90.67
42633;BME280;28261;53.304;-6.284;2023-02-19T02:10:55;102096.97;;;8.38;90.23
42633;BME280;28261;53.304;-6.284;2023-02-19T02:12:59;102104.84;;;8.40;91.04
42633;BME280;28261;53.304;-6.284;2023-02-19T02:15:03;102099.63;;;8.38;89.97
42633;BME280;28261;53.304;-6.284;2023-02-19T02:17:11;102094.28;;;8.40;90.62
42633;BME280;28261;53.304;-6.284;2023-02-19T02:19:48;102095.13;;;8.40;90.17
42633;BME280;28261;53.304;-6.284;2023-02-19T02:22:04;102092.50;;;8.40;90.15
42633;BME280;28261;53.304;-6.284;2023-02-19T02:24:36;102093.44;;;8.39;90.25
42633;BME280;28261;53.304;-6.284;2023-02-19T02:26:52;102103.19;;;8.37;89.98
42633;BME280;28261;53.304;-6.284;2023-02-19T02:29:30;102106.84;;;8.33;90.49
42633;BME280;28261;53.304;-6.284;2023-02-19T02:31:43;102129.84;;;8.29;90.66
42633;BME280;28261;53.304;-6.284;2023-02-19T02:33:56;102131.59;;;8.30;90.54
42633;BME280;28261;53.304;-6.284;2023-02-19T02:36:04;102136.94;;;8.29;90.09
42633;BME280;28261;53.304;-6.284;2023-02-19T02:38:13;102135.13;;;8.31;89.98
42633;BME280;28261;53.304;-6.284;2023-02-19T02:40:17;102119.28;;;8.29;89.56
42633;BME280;28261;53.304;-6.284;2023-02-19T02:42:21;102132.50;;;8.29;89.88
42633;BME280;28261;53.304;-6.284;2023-02-19T02:44:38;102129.06;;;8.27;89.73
42633;BME280;28261;53.304;-6.284;2023-02-19T02:46:44;102127.31;;;8.26;89.28
42633;BME280;28261;53.304;-6.284;2023-02-19T02:48:50;102122.22;;;8.22;89.58
42633;BME280;28261;53.304;-6.284;2023-02-19T02:50:59;102123.06;;;8.22;89.71
42633;BME280;28261;53.304;-6.284;2023-02-19T02:53:14;102124.03;;;8.20;90.15
42633;BME280;28261;53.304;-6.284;2023-02-19T02:55:40;102124.03;;;8.20;89.79
42633;BME280;28261;53.304;-6.284;2023-02-19T02:57:45;102131.06;;;8.21;89.88
42633;BME280;28261;53.304;-6.284;2023-02-19T02:59:48;102135.47;;;8.20;89.64
42633;BME280;28261;53.304;-6.284;2023-02-19T03:02:00;102143.44;;;8.19;89.57
42633;BME280;28261;53.304;-6.284;2023-02-19T03:04:13;102141.78;;;8.16;89.79
42633;BME280;28261;53.304;-6.284;2023-02-19T03:06:19;102148.84;;;8.16;90.15
42633;BME280;28261;53.304;-6.284;2023-02-19T03:08:27;102149.72;;;8.16;89.67
42633;BME280;28261;53.304;-6.284;2023-02-19T03:10:35;102157.66;;;8.14;89.74
42633;BME280;28261;53.304;-6.284;2023-02-19T03:12:44;102158.59;;;8.13;89.83
42633;BME280;28261;53.304;-6.284;2023-02-19T03:15:08;102155.97;;;8.13;90.42
42633;BME280;28261;53.304;-6.284;2023-02-19T03:17:35;102161.28;;;8.12;91.06
42633;BME280;28261;53.304;-6.284;2023-02-19T03:20:00;102159.63;;;8.09;90.40
42633;BME280;28261;53.304;-6.284;2023-02-19T03:22:12;102168.50;;;8.07;90.94
42633;BME280;28261;53.304;-6.284;2023-02-19T03:24:17;102169.41;;;8.06;91.36
42633;BME280;28261;53.304;-6.284;2023-02-19T03:26:41;102163.28;;;8.05;91.47
42633;BME280;28261;53.304;-6.284;2023-02-19T03:28:49;102162.34;;;8.06;91.66
42633;BME280;28261;53.304;-6.284;2023-02-19T03:31:17;102156.25;;;8.04;91.53
42633;BME280;28261;53.304;-6.284;2023-02-19T03:33:26;102161.53;;;8.04;91.62
42633;BME280;28261;53.304;-6.284;2023-02-19T03:35:32;102166.81;;;8.04;91.25
42633;BME280;28261;53.304;-6.284;2023-02-19T03:37:41;102165.97;;;8.04;92.17
42633;BME280;28261;53.304;-6.284;2023-02-19T03:39:46;102161.66;;;8.01;91.95
42633;BME280;28261;53.304;-6.284;2023-02-19T03:41:57;102160.72;;;8.02;92.00
42633;BME280;28261;53.304;-6.284;2023-02-19T03:44:05;102162.44;;;8.03;92.62
42633;BME280;28261;53.304;-6.284;2023-02-19T03:46:13;102158.84;;;8.06;92.28
42633;BME280;28261;53.304;-6.284;2023-02-19T03:48:30;102158.78;;;8.07;92.37
42633;BME280;28261;53.304;-6.284;2023-02-19T03:50:35;102164.97;;;8.06;92.10
42633;BME280;28261;53.304;-6.284;2023-02-19T03:52:50;102163.16;;;8.08;92.77
42633;BME280;28261;53.304;-6.284;2023-02-19T03:55:02;102163.97;;;8.10;92.41
42633;BME280;28261;53.304;-6.284;2023-02-19T03:57:16;102169.22;;;8.12;92.86
42633;BME280;28261;53.304;-6.284;2023-02-19T03:59:26;102164.78;;;8.12;92.54
42633;BME280;28261;53.304;-6.284;2023-02-19T04:01:38;102170.91;;;8.13;93.20
42633;BME280;28261;53.304;-6.284;2023-02-19T04:03:50;102171.81;;;8.13;93.15
42633;BME280;28261;53.304;-6.284;2023-02-19T04:06:00;102175.25;;;8.16;93.35
42633;BME280;28261;53.304;-6.284;2023-02-19T04:08:10;102181.41;;;8.16;93.13
42633;BME280;28261;53.304;-6.284;2023-02-19T04:10:20;102190.19;;;8.17;93.19
42633;BME280;28261;53.304;-6.284;2023-02-19T04:12:27;102187.53;;;8.17;93.20
42633;BME280;28261;53.304;-6.284;2023-02-19T04:14:35;102195.34;;;8.20;93.03
42633;BME280;28261;53.304;-6.284;2023-02-19T04:16:44;102191.81;;;8.21;93.43
42633;BME280;28261;53.304;-6.284;2023-02-19T04:18:53;102189.97;;;8.23;93.17
42633;BME280;28261;53.304;-6.284;2023-02-19T04:20:59;102176.75;;;8.23;92.57
42633;BME280;28261;53.304;-6.284;2023-02-19T04:23:03;102182.03;;;8.23;92.84
42633;BME280;28261;53.304;-6.284;2023-02-19T04:25:06;102190.91;;;8.22;93.11
42633;BME280;28261;53.304;-6.284;2023-02-19T04:27:10;102190.97;;;8.19;93.34
42633;BME280;28261;53.304;-6.284;2023-02-19T04:29:13;102190.06;;;8.20;93.46
42633;BME280;28261;53.304;-6.284;2023-02-19T04:31:17;102200.75;;;8.17;93.19
42633;BME280;28261;53.304;-6.284;2023-02-19T04:33:20;102199.06;;;8.14;93.43
42633;BME280;28261;53.304;-6.284;2023-02-19T04:35:25;102205.22;;;8.14;93.74
42633;BME280;28261;53.304;-6.284;2023-02-19T04:37:28;102192.00;;;8.14;93.50
42633;BME280;28261;53.304;-6.284;2023-02-19T04:39:32;102191.09;;;8.16;93.42
42633;BME280;28261;53.304;-6.284;2023-02-19T04:41:35;102188.41;;;8.17;94.00
42633;BME280;28261;53.304;-6.284;2023-02-19T04:43:39;102203.34;;;8.18;94.01
42633;BME280;28261;53.304;-6.284;2023-02-19T04:45:42;102213.00;;;8.19;93.68
42633;BME280;28261;53.304;-6.284;2023-02-19T04:47:45;102219.13;;;8.20;93.68
42633;BME280;28261;53.304;-6.284;2023-02-19T04:49:49;102220.09;;;8.17;94.54
42633;BME280;28261;53.304;-6.284;2023-02-19T04:51:53;102225.38;;;8.17;94.71
42633;BME280;28261;53.304;-6.284;2023-02-19T04:53:56;102225.31;;;8.19;94.81
42633;BME280;28261;53.304;-6.284;2023-02-19T04:56:05;102218.28;;;8.19;95.23
42633;BME280;28261;53.304;-6.284;2023-02-19T04:58:08;102218.28;;;8.19;95.62
42633;BME280;28261;53.304;-6.284;2023-02-19T05:00:12;102219.13;;;8.20;95.96
42633;BME280;28261;53.304;-6.284;2023-02-19T05:02:16;102220.94;;;8.19;96.13
42633;BME280;28261;53.304;-6.284;2023-02-19T05:04:19;102222.69;;;8.19;96.61
42633;BME280;28261;53.304;-6.284;2023-02-19T05:06:23;102223.56;;;8.19;96.92
42633;BME280;28261;53.304;-6.284;2023-02-19T05:08:27;102213.00;;;8.19;96.73
42633;BME280;28261;53.304;-6.284;2023-02-19T05:10:31;102216.53;;;8.18;97.13
42633;BME280;28261;53.304;-6.284;2023-02-19T05:12:34;102217.41;;;8.19;98.29
42633;BME280;28261;53.304;-6.284;2023-02-19T05:14:37;102207.78;;;8.18;98.19
42633;BME280;28261;53.304;-6.284;2023-02-19T05:16:40;102200.69;;;8.18;98.01
42633;BME280;28261;53.304;-6.284;2023-02-19T05:18:45;102195.41;;;8.18;98.01
42633;BME280;28261;53.304;-6.284;2023-02-19T05:20:49;102194.56;;;8.18;98.88
42633;BME280;28261;53.304;-6.284;2023-02-19T05:22:53;102176.00;;;8.19;98.93
42633;BME280;28261;53.304;-6.284;2023-02-19T05:24:57;102183.06;;;8.19;98.64
42633;BME280;28261;53.304;-6.284;2023-02-19T05:27:00;102177.75;;;8.20;98.93
42633;BME280;28261;53.304;-6.284;2023-02-19T05:29:04;102181.31;;;8.19;98.81
42633;BME280;28261;53.304;-6.284;2023-02-19T05:31:08;102200.69;;;8.18;99.16
42633;BME280;28261;53.304;-6.284;2023-02-19T05:33:13;102188.41;;;8.17;99.63
42633;BME280;28261;53.304;-6.284;2023-02-19T05:35:17;102177.81;;;8.17;99.28
42633;BME280;28261;53.304;-6.284;2023-02-19T05:37:20;102182.22;;;8.18;98.46
42633;BME280;28261;53.304;-6.284;2023-02-19T05:39:24;102178.72;;;8.18;98.82
42633;BME280;28261;53.304;-6.284;2023-02-19T05:41:29;102157.59;;;8.18;98.51
42633;BME280;28261;53.304;-6.284;2023-02-19T05:43:32;102156.69;;;8.17;98.69
42633;BME280;28261;53.304;-6.284;2023-02-19T05:45:36;102145.28;;;8.17;99.04
42633;BME280;28261;53.304;-6.284;2023-02-19T05:47:39;102127.69;;;8.16;98.61
42633;BME280;28261;53.304;-6.284;2023-02-19T05:49:42;102133.88;;;8.16;98.90
42633;BME280;28261;53.304;-6.284;2023-02-19T05:51:49;102141.72;;;8.18;98.01
42633;BME280;28261;53.304;-6.284;2023-02-19T05:53:53;102146.97;;;8.19;98.23
42633;BME280;28261;53.304;-6.284;2023-02-19T05:55:57;102142.59;;;8.18;98.43
42633;BME280;28261;53.304;-6.284;2023-02-19T05:58:02;102149.66;;;8.18;97.54
42633;BME280;28261;53.304;-6.284;2023-02-19T06:00:06;102147.97;;;8.15;98.28
42633;BME280;28261;53.304;-6.284;2023-02-19T06:02:12;102145.38;;;8.13;97.50
42633;BME280;28261;53.304;-6.284;2023-02-19T06:04:16;102148.94;;;8.12;97.61
42633;BME280;28261;53.304;-6.284;2023-02-19T06:06:21;102148.09;;;8.12;97.86
42633;BME280;28261;53.304;-6.284;2023-02-19T06:08:24;102137.56;;;8.10;98.08
42633;BME280;28261;53.304;-6.284;2023-02-19T06:10:28;102124.34;;;8.10;98.37
42633;BME280;28261;53.304;-6.284;2023-02-19T06:12:31;102106.78;;;8.09;98.03
42633;BME280;28261;53.304;-6.284;2023-02-19T06:14:36;102113.88;;;8.07;98.01
42633;BME280;28261;53.304;-6.284;2023-02-19T06:16:40;102124.47;;;8.07;97.74
42633;BME280;28261;53.304;-6.284;2023-02-19T06:18:43;102120.06;;;8.08;97.74
42633;BME280;28261;53.304;-6.284;2023-02-19T06:20:47;102119.28;;;8.04;98.07
42633;BME280;28261;53.304;-6.284;2023-02-19T06:22:50;102107.88;;;8.04;97.73
42633;BME280;28261;53.304;-6.284;2023-02-19T06:24:53;102113.22;;;8.01;98.41
42633;BME280;28261;53.304;-6.284;2023-02-19T06:26:57;102128.22;;;8.00;98.09
42633;BME280;28261;53.304;-6.284;2023-02-19T06:29:00;102118.63;;;7.97;98.24
42633;BME280;28261;53.304;-6.284;2023-02-19T06:31:05;102105.53;;;7.94;98.78
42633;BME280;28261;53.304;-6.284;2023-02-19T06:33:09;102100.31;;;7.93;99.12
42633;BME280;28261;53.304;-6.284;2023-02-19T06:35:12;102088.00;;;7.92;99.48
42633;BME280;28261;53.304;-6.284;2023-02-19T06:37:16;102092.44;;;7.91;99.08
42633;BME280;28261;53.304;-6.284;2023-02-19T06:39:19;102102.13;;;7.91;99.41
42633;BME280;28261;53.304;-6.284;2023-02-19T06:41:22;102096.06;;;7.89;99.05
42633;BME280;28261;53.304;-6.284;2023-02-19T06:43:25;102091.69;;;7.88;99.82
42633;BME280;28261;53.304;-6.284;2023-02-19T06:45:28;102094.31;;;7.88;100.00
42633;BME280;28261;53.304;-6.284;2023-02-19T06:47:33;102105.78;;;7.87;100.00
42633;BME280;28261;53.304;-6.284;2023-02-19T06:49:38;102097.91;;;7.85;100.00
42633;BME280;28261;53.304;-6.284;2023-02-19T06:51:41;102100.66;;;7.82;100.00
42633;BME280;28261;53.304;-6.284;2023-02-19T06:53:45;102091.88;;;7.82;100.00
42633;BME280;28261;53.304;-6.284;2023-02-19T06:55:54;102102.44;;;7.82;100.00
42633;BME280;28261;53.304;-6.284;2023-02-19T06:57:58;102111.31;;;7.79;100.00
42633;BME280;28261;53.304;-6.284;2023-02-19T07:00:01;102118.38;;;7.78;100.00
42633;BME280;28261;53.304;-6.284;2023-02-19T07:02:05;102099.09;;;7.76;100.00
42633;BME280;28261;53.304;-6.284;2023-02-19T07:04:10;102104.38;;;7.76;100.00
42633;BME280;28261;53.304;-6.284;2023-02-19T07:06:14;102097.38;;;7.75;100.00
42633;BME280;28261;53.304;-6.284;2023-02-19T07:08:17;102096.50;;;7.75;100.00
42633;BME280;28261;53.304;-6.284;2023-02-19T07:10:20;102101.81;;;7.73;100.00
42633;BME280;28261;53.304;-6.284;2023-02-19T07:12:24;102099.19;;;7.73;100.00
42633;BME280;28261;53.304;-6.284;2023-02-19T07:14:27;102106.19;;;7.74;100.00
42633;BME280;28261;53.304;-6.284;2023-02-19T07:16:31;102118.53;;;7.74;100.00
42633;BME280;28261;53.304;-6.284;2023-02-19T07:18:34;102134.38;;;7.74;100.00
42633;BME280;28261;53.304;-6.284;2023-02-19T07:20:39;102138.72;;;7.75;100.00
42633;BME280;28261;53.304;-6.284;2023-02-19T07:22:42;102132.59;;;7.74;100.00
42633;BME280;28261;53.304;-6.284;2023-02-19T07:24:45;102131.69;;;7.75;100.00
42633;BME280;28261;53.304;-6.284;2023-02-19T07:26:49;102128.13;;;7.76;100.00
42633;BME280;28261;53.304;-6.284;2023-02-19T07:28:52;102130.78;;;7.76;100.00
42633;BME280;28261;53.304;-6.284;2023-02-19T07:31:00;102131.63;;;7.77;100.00
42633;BME280;28261;53.304;-6.284;2023-02-19T07:33:04;102143.03;;;7.77;100.00
42633;BME280;28261;53.304;-6.284;2023-02-19T07:35:11;102150.97;;;7.77;100.00
42633;BME280;28261;53.304;-6.284;2023-02-19T07:37:15;102157.19;;;7.76;100.00
42633;BME280;28261;53.304;-6.284;2023-02-19T07:39:18;102160.72;;;7.75;100.00
42633;BME280;28261;53.304;-6.284;2023-02-19T07:41:22;102166.91;;;7.74;100.00
42633;BME280;28261;53.304;-6.284;2023-02-19T07:43:28;102169.56;;;7.74;100.00
42633;BME280;28261;53.304;-6.284;2023-02-19T07:45:31;102174.81;;;7.74;100.00
42633;BME280;28261;53.304;-6.284;2023-02-19T07:47:35;102169.56;;;7.74;100.00
42633;BME280;28261;53.304;-6.284;2023-02-19T07:49:38;102165.13;;;7.75;100.00
42633;BME280;28261;53.304;-6.284;2023-02-19T07:51:41;102171.34;;;7.74;100.00
42633;BME280;28261;53.304;-6.284;2023-02-19T07:53:47;102179.31;;;7.71;100.00
42633;BME280;28261;53.304;-6.284;2023-02-19T07:55:52;102165.34;;;7.69;100.00
42633;BME280;28261;53.304;-6.284;2023-02-19T07:57:57;102168.81;;;7.69;100.00
42633;BME280;28261;53.304;-6.284;2023-02-19T08:00:00;102160.06;;;7.69;100.00
42633;BME280;28261;53.304;-6.284;2023-02-19T08:02:15;102175.88;;;7.69;100.00
42633;BME280;28261;53.304;-6.284;2023-02-19T08:04:36;102188.25;;;7.68;100.00
42633;BME280;28261;53.304;-6.284;2023-02-19T08:06:40;102182.13;;;7.66;100.00
42633;BME280;28261;53.304;-6.284;2023-02-19T08:08:43;102176.84;;;7.66;100.00
42633;BME280;28261;53.304;-6.284;2023-02-19T08:10:48;102175.94;;;7.67;100.00
42633;BME280;28261;53.304;-6.284;2023-02-19T08:13:10;102175.94;;;7.67;100.00
42633;BME280;28261;53.304;-6.284;2023-02-19T08:15:24;102175.94;;;7.67;100.00
42633;BME280;28261;53.304;-6.284;2023-02-19T08:17:27;102168.94;;;7.66;100.00
42633;BME280;28261;53.304;-6.284;2023-02-19T08:19:32;102175.03;;;7.68;100.00
42633;BME280;28261;53.304;-6.284;2023-02-19T08:21:35;102167.13;;;7.68;100.00
42633;BME280;28261;53.304;-6.284;2023-02-19T08:23:38;102175.88;;;7.69;100.00
42633;BME280;28261;53.304;-6.284;2023-02-19T08:25:42;102179.31;;;7.71;100.00
42633;BME280;28261;53.304;-6.284;2023-02-19T08:27:47;102178.44;;;7.72;100.00
42633;BME280;28261;53.304;-6.284;2023-02-19T08:29:50;102173.97;;;7.74;100.00
42633;BME280;28261;53.304;-6.284;2023-02-19T08:31:54;102171.28;;;7.75;100.00
42633;BME280;28261;53.304;-6.284;2023-02-19T08:33:57;102169.44;;;7.77;100.00
42633;BME280;28261;53.304;-6.284;2023-02-19T08:36:01;102177.31;;;7.79;100.00
42633;BME280;28261;53.304;-6.284;2023-02-19T08:38:06;102179.94;;;7.81;100.00
42633;BME280;28261;53.304;-6.284;2023-02-19T08:40:10;102172.00;;;7.81;100.00
42633;BME280;28261;53.304;-6.284;2023-02-19T08:42:14;102177.28;;;7.81;100.00
42633;BME280;28261;53.304;-6.284;2023-02-19T08:44:18;102178.09;;;7.83;100.00
42633;BME280;28261;53.304;-6.284;2023-02-19T08:46:22;102173.63;;;7.85;100.00
42633;BME280;28261;53.304;-6.284;2023-02-19T08:48:25;102160.38;;;7.86;100.00
42633;BME280;28261;53.304;-6.284;2023-02-19T08:50:29;102163.03;;;7.86;100.00
42633;BME280;28261;53.304;-6.284;2023-02-19T08:52:32;102172.63;;;7.87;100.00
42633;BME280;28261;53.304;-6.284;2023-02-19T08:54:36;102174.31;;;7.90;100.00
42633;BME280;28261;53.304;-6.284;2023-02-19T08:56:39;102170.66;;;7.94;100.00
42633;BME280;28261;53.304;-6.284;2023-02-19T08:58:44;102161.78;;;7.96;100.00
42633;BME280;28261;53.304;-6.284;2023-02-19T09:00:49;102146.78;;;7.99;100.00
42633;BME280;28261;53.304;-6.284;2023-02-19T09:02:52;102141.44;;;8.00;100.00
42633;BME280;28261;53.304;-6.284;2023-02-19T09:04:55;102145.81;;;8.01;100.00
42633;BME280;28261;53.304;-6.284;2023-02-19T09:06:59;102153.72;;;8.01;100.00
42633;BME280;28261;53.304;-6.284;2023-02-19T09:09:03;102153.72;;;8.01;100.00
42633;BME280;28261;53.304;-6.284;2023-02-19T09:11:06;102152.91;;;7.99;100.00
42633;BME280;28261;53.304;-6.284;2023-02-19T09:13:10;102160.78;;;8.01;100.00
42633;BME280;28261;53.304;-6.284;2023-02-19T09:15:14;102166.94;;;8.01;100.00
42633;BME280;28261;53.304;-6.284;2023-02-19T09:17:18;102171.34;;;8.01;100.00
42633;BME280;28261;53.304;-6.284;2023-02-19T09:19:22;102178.47;;;7.99;100.00
42633;BME280;28261;53.304;-6.284;2023-02-19T09:21:25;102167.00;;;7.98;100.00
42633;BME280;28261;53.304;-6.284;2023-02-19T09:23:29;102168.75;;;7.99;100.00
42633;BME280;28261;53.304;-6.284;2023-02-19T09:25:32;102163.47;;;7.99;100.00
42633;BME280;28261;53.304;-6.284;2023-02-19T09:27:35;102168.63;;;8.02;100.00
42633;BME280;28261;53.304;-6.284;2023-02-19T09:29:39;102175.53;;;8.06;100.00
42633;BME280;28261;53.304;-6.284;2023-02-19T09:31:42;102173.63;;;8.11;100.00
42633;BME280;28261;53.304;-6.284;2023-02-19T09:33:47;102162.03;;;8.16;100.00
42633;BME280;28261;53.304;-6.284;2023-02-19T09:35:51;102168.88;;;8.21;100.00
42633;BME280;28261;53.304;-6.284;2023-02-19T09:37:58;102167.00;;;8.25;100.00
42633;BME280;28261;53.304;-6.284;2023-02-19T09:40:01;102172.00;;;8.34;100.00
42633;BME280;28261;53.304;-6.284;2023-02-19T09:42:11;102162.69;;;8.49;100.00
42633;BME280;28261;53.304;-6.284;2023-02-19T09:44:22;102162.91;;;8.68;100.00
42633;BME280;28261;53.304;-6.284;2023-02-19T09:46:29;102173.69;;;8.87;100.00
42633;BME280;28261;53.304;-6.284;2023-02-19T09:48:34;102178.41;;;9.03;100.00
42633;BME280;28261;53.304;-6.284;2023-02-19T09:50:41;102180.78;;;9.10;100.00
42633;BME280;28261;53.304;-6.284;2023-02-19T09:52:49;102187.81;;;9.10;99.26
42633;BME280;28261;53.304;-6.284;2023-02-19T09:54:56;102191.69;;;9.01;99.41
42633;BME280;28261;53.304;-6.284;2023-02-19T09:57:02;102195.41;;;8.95;99.83
42633;BME280;28261;53.304;-6.284;2023-02-19T09:59:15;102198.28;;;8.89;99.79
42633;BME280;28261;53.304;-6.284;2023-02-19T10:01:23;102200.16;;;8.86;100.00
42633;BME280;28261;53.304;-6.284;2023-02-19T10:03:29;102212.59;;;8.84;100.00
42633;BME280;28261;53.304;-6.284;2023-02-19T10:05:35;102206.47;;;8.81;99.85
42633;BME280;28261;53.304;-6.284;2023-02-19T10:07:44;102199.47;;;8.80;100.00
42633;BME280;28261;53.304;-6.284;2023-02-19T10:09:52;102197.69;;;8.81;100.00
42633;BME280;28261;53.304;-6.284;2023-02-19T10:11:58;102202.91;;;8.83;100.00
42633;BME280;28261;53.304;-6.284;2023-02-19T10:14:04;102190.53;;;8.85;100.00
42633;BME280;28261;53.304;-6.284;2023-02-19T10:16:12;102201.88;;;8.87;99.99
42633;BME280;28261;53.304;-6.284;2023-02-19T10:18:20;102191.31;;;8.87;99.64
42633;BME280;28261;53.304;-6.284;2023-02-19T10:20:25;102196.53;;;8.88;99.53
42633;BME280;28261;53.304;-6.284;2023-02-19T10:22:30;102197.44;;;8.89;99.42
42633;BME280;28261;53.304;-6.284;2023-02-19T10:24:36;102199.13;;;8.90;98.77
42633;BME280;28261;53.304;-6.284;2023-02-19T10:26:42;102196.53;;;8.88;98.61
42633;BME280;28261;53.304;-6.284;2023-02-19T10:28:45;102194.84;;;8.87;98.64
42633;BME280;28261;53.304;-6.284;2023-02-19T10:30:52;102198.28;;;8.89;98.72
42633;BME280;28261;53.304;-6.284;2023-02-19T10:33:01;102191.19;;;8.90;98.67
42633;BME280;28261;53.304;-6.284;2023-02-19T10:35:10;102193.75;;;8.93;98.22
42633;BME280;28261;53.304;-6.284;2023-02-19T10:37:15;102197.03;;;9.00;98.67
42633;BME280;28261;53.304;-6.284;2023-02-19T10:39:42;102203.06;;;9.03;97.76
42633;BME280;28261;53.304;-6.284;2023-02-19T10:41:47;102200.41;;;9.03;97.39
42633;BME280;28261;53.304;-6.284;2023-02-19T10:43:54;102206.47;;;9.07;96.55
42633;BME280;28261;53.304;-6.284;2023-02-19T10:46:00;102201.28;;;9.04;96.63
42633;BME280;28261;53.304;-6.284;2023-02-19T10:48:06;102201.34;;;9.02;96.47
42633;BME280;28261;53.304;-6.284;2023-02-19T10:50:29;102210.06;;;9.04;96.04
42633;BME280;28261;53.304;-6.284;2023-02-19T10:52:34;102213.53;;;9.06;96.88
42633;BME280;28261;53.304;-6.284;2023-02-19T10:54:37;102208.13;;;9.09;96.57
42633;BME280;28261;53.304;-6.284;2023-02-19T10:56:43;102208.84;;;9.14;96.06
42633;BME280;28261;53.304;-6.284;2023-02-19T10:58:46;102201.88;;;9.12;96.16
42633;BME280;28261;53.304;-6.284;2023-02-19T11:01:09;102200.84;;;9.16;96.17